sensor_id;sensor_type;location;lat;lon;timestamp;P1;durP1;ratioP1;P2;durP2;ratioP2
30048;SDS011;16879;50.852;15.602;2022-08-19T00:00:20;15.52;;;14.07;;
30048;SDS011;16879;50.852;15.602;2022-08-19T00:02:46;16.88;;;15.40;;
30048;SDS011;16879;50.852;15.602;2022-08-19T00:05:13;19.98;;;15.27;;
30048;SDS011;16879;50.852;15.602;2022-08-19T00:07:40;17.65;;;16.00;;
30048;SDS011;16879;50.852;15.602;2022-08-19T00:10:09;15.10;;;13.85;;
30048;SDS011;16879;50.852;15.602;2022-08-19T00:12:36;19.92;;;15.55;;
30048;SDS011;16879;50.852;15.602;2022-08-19T00:15:06;15.85;;;13.93;;
30048;SDS011;16879;50.852;15.602;2022-08-19T00:17:40;19.77;;;14.95;;
30048;SDS011;16879;50.852;15.602;2022-08-19T00:20:09;15.43;;;13.93;;
30048;SDS011;16879;50.852;15.602;2022-08-19T00:22:37;14.57;;;13.27;;
30048;SDS011;16879;50.852;15.602;2022-08-19T00:25:04;14.05;;;12.80;;
30048;SDS011;16879;50.852;15.602;2022-08-19T00:27:31;15.13;;;13.82;;
30048;SDS011;16879;50.852;15.602;2022-08-19T00:29:57;19.42;;;13.15;;
30048;SDS011;16879;50.852;15.602;2022-08-19T00:32:24;16.05;;;14.30;;
30048;SDS011;16879;50.852;15.602;2022-08-19T00:34:51;13.07;;;11.80;;
30048;SDS011;16879;50.852;15.602;2022-08-19T00:37:22;15.00;;;13.80;;
30048;SDS011;16879;50.852;15.602;2022-08-19T00:39:50;14.23;;;12.82;;
30048;SDS011;16879;50.852;15.602;2022-08-19T00:42:17;14.05;;;12.43;;
30048;SDS011;16879;50.852;15.602;2022-08-19T00:44:46;13.45;;;12.10;;
30048;SDS011;16879;50.852;15.602;2022-08-19T00:47:12;13.77;;;12.57;;
30048;SDS011;16879;50.852;15.602;2022-08-19T00:49:48;17.00;;;13.60;;
30048;SDS011;16879;50.852;15.602;2022-08-19T00:52:27;15.00;;;13.45;;
30048;SDS011;16879;50.852;15.602;2022-08-19T00:55:05;14.73;;;13.30;;
30048;SDS011;16879;50.852;15.602;2022-08-19T00:57:38;15.25;;;13.95;;
30048;SDS011;16879;50.852;15.602;2022-08-19T01:00:10;14.95;;;13.45;;
30048;SDS011;16879;50.852;15.602;2022-08-19T01:02:39;18.27;;;14.63;;
30048;SDS011;16879;50.852;15.602;2022-08-19T01:05:06;16.33;;;14.82;;
30048;SDS011;16879;50.852;15.602;2022-08-19T01:07:37;16.13;;;14.05;;
30048;SDS011;16879;50.852;15.602;2022-08-19T01:10:06;14.57;;;13.02;;
30048;SDS011;16879;50.852;15.602;2022-08-19T01:12:35;15.05;;;13.57;;
30048;SDS011;16879;50.852;15.602;2022-08-19T01:15:04;14.68;;;13.38;;
30048;SDS011;16879;50.852;15.602;2022-08-19T01:17:33;17.00;;;14.55;;
30048;SDS011;16879;50.852;15.602;2022-08-19T01:20:02;14.75;;;13.40;;
30048;SDS011;16879;50.852;15.602;2022-08-19T01:22:34;14.40;;;13.10;;
30048;SDS011;16879;50.852;15.602;2022-08-19T01:25:12;13.40;;;12.00;;
30048;SDS011;16879;50.852;15.602;2022-08-19T01:27:41;13.18;;;11.95;;
30048;SDS011;16879;50.852;15.602;2022-08-19T01:30:10;13.30;;;12.07;;
30048;SDS011;16879;50.852;15.602;2022-08-19T01:32:44;14.00;;;11.98;;
30048;SDS011;16879;50.852;15.602;2022-08-19T01:35:11;14.57;;;13.20;;
30048;SDS011;16879;50.852;15.602;2022-08-19T01:40:13;17.40;;;15.52;;
30048;SDS011;16879;50.852;15.602;2022-08-19T01:42:40;14.88;;;13.40;;
30048;SDS011;16879;50.852;15.602;2022-08-19T01:45:06;14.60;;;12.43;;
30048;SDS011;16879;50.852;15.602;2022-08-19T01:47:34;12.35;;;11.15;;
30048;SDS011;16879;50.852;15.602;2022-08-19T01:50:01;14.77;;;13.38;;
30048;SDS011;16879;50.852;15.602;2022-08-19T01:52:27;13.70;;;12.35;;
30048;SDS011;16879;50.852;15.602;2022-08-19T01:54:53;14.98;;;13.50;;
30048;SDS011;16879;50.852;15.602;2022-08-19T01:57:19;16.77;;;13.05;;
30048;SDS011;16879;50.852;15.602;2022-08-19T01:59:45;13.02;;;11.82;;
30048;SDS011;16879;50.852;15.602;2022-08-19T02:02:11;13.95;;;12.68;;
30048;SDS011;16879;50.852;15.602;2022-08-19T02:04:37;13.52;;;12.23;;
30048;SDS011;16879;50.852;15.602;2022-08-19T02:07:04;13.00;;;11.75;;
30048;SDS011;16879;50.852;15.602;2022-08-19T02:09:31;13.25;;;11.95;;
30048;SDS011;16879;50.852;15.602;2022-08-19T02:11:57;13.57;;;12.27;;
30048;SDS011;16879;50.852;15.602;2022-08-19T02:14:23;14.52;;;12.48;;
30048;SDS011;16879;50.852;15.602;2022-08-19T02:16:49;14.00;;;12.55;;
30048;SDS011;16879;50.852;15.602;2022-08-19T02:19:15;12.35;;;11.23;;
30048;SDS011;16879;50.852;15.602;2022-08-19T02:21:41;15.60;;;13.82;;
30048;SDS011;16879;50.852;15.602;2022-08-19T02:24:08;13.75;;;12.00;;
30048;SDS011;16879;50.852;15.602;2022-08-19T02:26:35;12.68;;;11.43;;
30048;SDS011;16879;50.852;15.602;2022-08-19T02:29:01;12.68;;;11.50;;
30048;SDS011;16879;50.852;15.602;2022-08-19T02:31:27;22.83;;;11.90;;
30048;SDS011;16879;50.852;15.602;2022-08-19T02:33:53;14.40;;;13.00;;
30048;SDS011;16879;50.852;15.602;2022-08-19T02:36:20;13.75;;;12.23;;
30048;SDS011;16879;50.852;15.602;2022-08-19T02:38:47;11.85;;;10.85;;
30048;SDS011;16879;50.852;15.602;2022-08-19T02:41:16;14.98;;;13.40;;
30048;SDS011;16879;50.852;15.602;2022-08-19T02:43:44;14.38;;;13.10;;
30048;SDS011;16879;50.852;15.602;2022-08-19T02:46:20;13.73;;;12.30;;
30048;SDS011;16879;50.852;15.602;2022-08-19T02:48:49;14.55;;;11.65;;
30048;SDS011;16879;50.852;15.602;2022-08-19T02:51:20;15.93;;;12.43;;
30048;SDS011;16879;50.852;15.602;2022-08-19T02:53:50;13.57;;;12.27;;
30048;SDS011;16879;50.852;15.602;2022-08-19T02:56:16;15.10;;;13.57;;
30048;SDS011;16879;50.852;15.602;2022-08-19T02:58:43;14.63;;;12.90;;
30048;SDS011;16879;50.852;15.602;2022-08-19T03:01:10;13.60;;;12.20;;
30048;SDS011;16879;50.852;15.602;2022-08-19T03:03:37;13.30;;;12.05;;
30048;SDS011;16879;50.852;15.602;2022-08-19T03:06:10;12.63;;;11.52;;
30048;SDS011;16879;50.852;15.602;2022-08-19T03:08:40;14.25;;;12.85;;
30048;SDS011;16879;50.852;15.602;2022-08-19T03:11:12;13.50;;;12.15;;
30048;SDS011;16879;50.852;15.602;2022-08-19T03:13:42;14.25;;;12.75;;
30048;SDS011;16879;50.852;15.602;2022-08-19T03:16:09;13.45;;;10.98;;
30048;SDS011;16879;50.852;15.602;2022-08-19T03:18:35;9.77;;;8.88;;
30048;SDS011;16879;50.852;15.602;2022-08-19T03:21:02;11.00;;;7.18;;
30048;SDS011;16879;50.852;15.602;2022-08-19T03:23:28;6.95;;;5.90;;
30048;SDS011;16879;50.852;15.602;2022-08-19T03:25:54;7.85;;;5.25;;
30048;SDS011;16879;50.852;15.602;2022-08-19T03:28:20;9.50;;;5.53;;
30048;SDS011;16879;50.852;15.602;2022-08-19T03:33:43;7.40;;;5.63;;
30048;SDS011;16879;50.852;15.602;2022-08-19T03:36:14;13.63;;;6.47;;
30048;SDS011;16879;50.852;15.602;2022-08-19T03:38:43;7.85;;;5.70;;
30048;SDS011;16879;50.852;15.602;2022-08-19T03:41:14;10.05;;;5.85;;
30048;SDS011;16879;50.852;15.602;2022-08-19T03:43:43;7.18;;;5.30;;
30048;SDS011;16879;50.852;15.602;2022-08-19T03:46:14;5.15;;;4.60;;
30048;SDS011;16879;50.852;15.602;2022-08-19T03:48:47;6.65;;;5.18;;
30048;SDS011;16879;50.852;15.602;2022-08-19T03:53:53;6.47;;;5.22;;
30048;SDS011;16879;50.852;15.602;2022-08-19T03:56:21;6.35;;;4.57;;
30048;SDS011;16879;50.852;15.602;2022-08-19T03:58:47;5.45;;;4.90;;
30048;SDS011;16879;50.852;15.602;2022-08-19T04:01:15;6.63;;;4.85;;
30048;SDS011;16879;50.852;15.602;2022-08-19T04:03:43;6.47;;;4.40;;
30048;SDS011;16879;50.852;15.602;2022-08-19T04:06:30;6.78;;;5.18;;
30048;SDS011;16879;50.852;15.602;2022-08-19T04:08:58;6.28;;;5.20;;
30048;SDS011;16879;50.852;15.602;2022-08-19T04:11:27;8.05;;;4.75;;
30048;SDS011;16879;50.852;15.602;2022-08-19T04:13:58;9.82;;;4.93;;
30048;SDS011;16879;50.852;15.602;2022-08-19T04:16:25;7.68;;;4.90;;
30048;SDS011;16879;50.852;15.602;2022-08-19T04:18:55;7.82;;;5.68;;
30048;SDS011;16879;50.852;15.602;2022-08-19T04:21:25;8.23;;;4.38;;
30048;SDS011;16879;50.852;15.602;2022-08-19T04:23:53;6.97;;;6.03;;
30048;SDS011;16879;50.852;15.602;2022-08-19T04:26:22;8.27;;;4.85;;
30048;SDS011;16879;50.852;15.602;2022-08-19T04:28:50;4.93;;;4.45;;
30048;SDS011;16879;50.852;15.602;2022-08-19T04:31:27;7.00;;;5.53;;
30048;SDS011;16879;50.852;15.602;2022-08-19T04:33:58;7.85;;;5.07;;
30048;SDS011;16879;50.852;15.602;2022-08-19T04:36:29;6.40;;;5.13;;
30048;SDS011;16879;50.852;15.602;2022-08-19T04:38:58;13.75;;;5.82;;
30048;SDS011;16879;50.852;15.602;2022-08-19T04:41:26;7.07;;;5.57;;
30048;SDS011;16879;50.852;15.602;2022-08-19T04:44:10;8.75;;;5.25;;
30048;SDS011;16879;50.852;15.602;2022-08-19T04:46:36;7.13;;;5.70;;
30048;SDS011;16879;50.852;15.602;2022-08-19T04:49:03;6.43;;;5.82;;
30048;SDS011;16879;50.852;15.602;2022-08-19T04:51:31;5.40;;;5.00;;
30048;SDS011;16879;50.852;15.602;2022-08-19T04:53:58;8.38;;;6.05;;
30048;SDS011;16879;50.852;15.602;2022-08-19T04:56:25;7.97;;;5.63;;
30048;SDS011;16879;50.852;15.602;2022-08-19T04:58:52;7.97;;;5.75;;
30048;SDS011;16879;50.852;15.602;2022-08-19T05:01:21;7.38;;;5.78;;
30048;SDS011;16879;50.852;15.602;2022-08-19T05:03:53;6.70;;;5.72;;
30048;SDS011;16879;50.852;15.602;2022-08-19T05:06:20;5.95;;;5.43;;
30048;SDS011;16879;50.852;15.602;2022-08-19T05:08:47;6.97;;;5.18;;
30048;SDS011;16879;50.852;15.602;2022-08-19T05:11:15;8.70;;;6.05;;
30048;SDS011;16879;50.852;15.602;2022-08-19T05:13:42;10.82;;;7.43;;
30048;SDS011;16879;50.852;15.602;2022-08-19T05:16:10;14.80;;;8.30;;
30048;SDS011;16879;50.852;15.602;2022-08-19T05:18:37;11.73;;;6.65;;
30048;SDS011;16879;50.852;15.602;2022-08-19T05:21:22;11.93;;;5.95;;
30048;SDS011;16879;50.852;15.602;2022-08-19T05:24:07;18.42;;;7.38;;
30048;SDS011;16879;50.852;15.602;2022-08-19T05:26:34;8.80;;;6.90;;
30048;SDS011;16879;50.852;15.602;2022-08-19T05:29:01;8.63;;;6.50;;
30048;SDS011;16879;50.852;15.602;2022-08-19T05:31:28;10.52;;;7.13;;
30048;SDS011;16879;50.852;15.602;2022-08-19T05:33:54;13.20;;;7.28;;
30048;SDS011;16879;50.852;15.602;2022-08-19T05:36:21;9.48;;;7.30;;
30048;SDS011;16879;50.852;15.602;2022-08-19T05:38:47;10.88;;;6.47;;
30048;SDS011;16879;50.852;15.602;2022-08-19T05:41:14;7.18;;;6.30;;
30048;SDS011;16879;50.852;15.602;2022-08-19T05:43:41;7.28;;;6.25;;
30048;SDS011;16879;50.852;15.602;2022-08-19T05:46:07;8.73;;;6.13;;
30048;SDS011;16879;50.852;15.602;2022-08-19T05:48:34;8.15;;;7.18;;
30048;SDS011;16879;50.852;15.602;2022-08-19T05:51:05;6.38;;;5.78;;
30048;SDS011;16879;50.852;15.602;2022-08-19T05:53:32;10.20;;;6.65;;
30048;SDS011;16879;50.852;15.602;2022-08-19T05:56:03;7.80;;;5.78;;
30048;SDS011;16879;50.852;15.602;2022-08-19T05:58:30;6.18;;;5.57;;
30048;SDS011;16879;50.852;15.602;2022-08-19T06:00:57;8.05;;;6.10;;
30048;SDS011;16879;50.852;15.602;2022-08-19T06:03:29;7.57;;;6.03;;
30048;SDS011;16879;50.852;15.602;2022-08-19T06:05:57;9.50;;;6.45;;
30048;SDS011;16879;50.852;15.602;2022-08-19T06:08:24;13.38;;;6.88;;
30048;SDS011;16879;50.852;15.602;2022-08-19T06:10:51;6.50;;;5.90;;
30048;SDS011;16879;50.852;15.602;2022-08-19T06:13:18;6.13;;;5.53;;
30048;SDS011;16879;50.852;15.602;2022-08-19T06:15:44;9.20;;;6.40;;
30048;SDS011;16879;50.852;15.602;2022-08-19T06:18:14;6.13;;;5.53;;
30048;SDS011;16879;50.852;15.602;2022-08-19T06:20:41;5.93;;;5.38;;
30048;SDS011;16879;50.852;15.602;2022-08-19T06:23:07;7.07;;;5.93;;
30048;SDS011;16879;50.852;15.602;2022-08-19T06:25:34;9.00;;;5.65;;
30048;SDS011;16879;50.852;15.602;2022-08-19T06:28:00;6.50;;;5.75;;
30048;SDS011;16879;50.852;15.602;2022-08-19T06:30:27;6.75;;;6.15;;
30048;SDS011;16879;50.852;15.602;2022-08-19T06:32:53;6.32;;;5.70;;
30048;SDS011;16879;50.852;15.602;2022-08-19T06:35:19;6.10;;;5.60;;
30048;SDS011;16879;50.852;15.602;2022-08-19T06:37:45;6.53;;;5.93;;
30048;SDS011;16879;50.852;15.602;2022-08-19T06:40:10;8.77;;;6.13;;
30048;SDS011;16879;50.852;15.602;2022-08-19T06:42:37;6.50;;;5.90;;
30048;SDS011;16879;50.852;15.602;2022-08-19T06:45:04;6.30;;;5.75;;
30048;SDS011;16879;50.852;15.602;2022-08-19T06:47:33;7.50;;;6.28;;
30048;SDS011;16879;50.852;15.602;2022-08-19T06:49:59;6.75;;;6.15;;
30048;SDS011;16879;50.852;15.602;2022-08-19T06:52:28;7.13;;;6.53;;
30048;SDS011;16879;50.852;15.602;2022-08-19T06:54:57;7.43;;;6.72;;
30048;SDS011;16879;50.852;15.602;2022-08-19T06:57:24;6.53;;;5.40;;
30048;SDS011;16879;50.852;15.602;2022-08-19T06:59:51;8.05;;;6.72;;
30048;SDS011;16879;50.852;15.602;2022-08-19T07:02:17;6.63;;;6.15;;
30048;SDS011;16879;50.852;15.602;2022-08-19T07:04:43;7.22;;;6.63;;
30048;SDS011;16879;50.852;15.602;2022-08-19T07:07:14;8.40;;;7.68;;
30048;SDS011;16879;50.852;15.602;2022-08-19T07:10:14;7.32;;;6.72;;
30048;SDS011;16879;50.852;15.602;2022-08-19T07:12:39;7.65;;;7.05;;
30048;SDS011;16879;50.852;15.602;2022-08-19T07:15:06;8.35;;;7.45;;
30048;SDS011;16879;50.852;15.602;2022-08-19T07:17:34;8.38;;;7.57;;
30048;SDS011;16879;50.852;15.602;2022-08-19T07:20:02;7.43;;;6.50;;
30048;SDS011;16879;50.852;15.602;2022-08-19T07:22:30;8.00;;;7.32;;
30048;SDS011;16879;50.852;15.602;2022-08-19T07:24:56;9.40;;;6.65;;
30048;SDS011;16879;50.852;15.602;2022-08-19T07:27:22;7.07;;;6.47;;
30048;SDS011;16879;50.852;15.602;2022-08-19T07:29:48;7.97;;;7.07;;
30048;SDS011;16879;50.852;15.602;2022-08-19T07:32:14;7.82;;;7.13;;
30048;SDS011;16879;50.852;15.602;2022-08-19T07:34:40;8.25;;;7.60;;
30048;SDS011;16879;50.852;15.602;2022-08-19T07:37:06;10.98;;;9.93;;
30048;SDS011;16879;50.852;15.602;2022-08-19T07:39:33;10.23;;;9.23;;
30048;SDS011;16879;50.852;15.602;2022-08-19T07:42:02;10.70;;;9.80;;
30048;SDS011;16879;50.852;15.602;2022-08-19T07:44:34;10.95;;;9.95;;
30048;SDS011;16879;50.852;15.602;2022-08-19T07:47:00;12.00;;;10.95;;
30048;SDS011;16879;50.852;15.602;2022-08-19T07:49:27;19.58;;;12.02;;
30048;SDS011;16879;50.852;15.602;2022-08-19T07:51:55;18.10;;;13.65;;
30048;SDS011;16879;50.852;15.602;2022-08-19T07:54:28;13.63;;;12.25;;
30048;SDS011;16879;50.852;15.602;2022-08-19T07:56:55;16.10;;;14.40;;
30048;SDS011;16879;50.852;15.602;2022-08-19T07:59:22;15.05;;;13.38;;
30048;SDS011;16879;50.852;15.602;2022-08-19T08:01:50;14.57;;;13.18;;
30048;SDS011;16879;50.852;15.602;2022-08-19T08:04:17;14.35;;;13.15;;
30048;SDS011;16879;50.852;15.602;2022-08-19T08:07:02;16.35;;;13.57;;
30048;SDS011;16879;50.852;15.602;2022-08-19T08:09:48;31.13;;;13.73;;
30048;SDS011;16879;50.852;15.602;2022-08-19T08:12:25;62.35;;;16.10;;
30048;SDS011;16879;50.852;15.602;2022-08-19T08:14:55;17.88;;;13.90;;
30048;SDS011;16879;50.852;15.602;2022-08-19T08:17:24;15.02;;;13.00;;
30048;SDS011;16879;50.852;15.602;2022-08-19T08:19:51;14.80;;;13.23;;
30048;SDS011;16879;50.852;15.602;2022-08-19T08:22:19;16.38;;;13.35;;
30048;SDS011;16879;50.852;15.602;2022-08-19T08:25:08;15.23;;;13.70;;
30048;SDS011;16879;50.852;15.602;2022-08-19T08:27:38;16.40;;;14.77;;
30048;SDS011;16879;50.852;15.602;2022-08-19T08:30:10;15.52;;;13.32;;
30048;SDS011;16879;50.852;15.602;2022-08-19T08:32:47;20.02;;;14.40;;
30048;SDS011;16879;50.852;15.602;2022-08-19T08:35:14;15.93;;;13.95;;
30048;SDS011;16879;50.852;15.602;2022-08-19T08:37:42;16.67;;;13.57;;
30048;SDS011;16879;50.852;15.602;2022-08-19T08:43:07;15.40;;;14.10;;
30048;SDS011;16879;50.852;15.602;2022-08-19T08:51:39;16.67;;;14.20;;
30048;SDS011;16879;50.852;15.602;2022-08-19T08:54:20;15.07;;;13.52;;
30048;SDS011;16879;50.852;15.602;2022-08-19T08:56:49;15.48;;;13.98;;
30048;SDS011;16879;50.852;15.602;2022-08-19T08:59:39;15.95;;;14.32;;
30048;SDS011;16879;50.852;15.602;2022-08-19T09:02:06;14.85;;;13.48;;
30048;SDS011;16879;50.852;15.602;2022-08-19T09:04:34;17.00;;;15.25;;
30048;SDS011;16879;50.852;15.602;2022-08-19T09:09:52;18.92;;;17.13;;
30048;SDS011;16879;50.852;15.602;2022-08-19T09:15:16;16.83;;;15.23;;
30048;SDS011;16879;50.852;15.602;2022-08-19T09:17:48;17.30;;;15.50;;
30048;SDS011;16879;50.852;15.602;2022-08-19T09:20:19;16.63;;;14.93;;
30048;SDS011;16879;50.852;15.602;2022-08-19T09:22:47;16.58;;;14.82;;
30048;SDS011;16879;50.852;15.602;2022-08-19T09:25:19;19.85;;;17.95;;
30048;SDS011;16879;50.852;15.602;2022-08-19T09:27:48;16.85;;;15.38;;
30048;SDS011;16879;50.852;15.602;2022-08-19T09:30:20;17.65;;;16.05;;
30048;SDS011;16879;50.852;15.602;2022-08-19T09:32:49;18.85;;;16.95;;
30048;SDS011;16879;50.852;15.602;2022-08-19T09:35:17;19.30;;;16.58;;
30048;SDS011;16879;50.852;15.602;2022-08-19T09:37:51;17.85;;;16.05;;
30048;SDS011;16879;50.852;15.602;2022-08-19T09:40:18;19.48;;;17.40;;
30048;SDS011;16879;50.852;15.602;2022-08-19T09:42:45;17.30;;;15.90;;
30048;SDS011;16879;50.852;15.602;2022-08-19T09:45:13;16.40;;;14.82;;
30048;SDS011;16879;50.852;15.602;2022-08-19T09:47:39;16.63;;;15.15;;
30048;SDS011;16879;50.852;15.602;2022-08-19T09:50:06;16.42;;;14.85;;
30048;SDS011;16879;50.852;15.602;2022-08-19T09:52:34;18.02;;;16.17;;
30048;SDS011;16879;50.852;15.602;2022-08-19T09:55:02;15.98;;;14.55;;
30048;SDS011;16879;50.852;15.602;2022-08-19T09:57:32;17.33;;;15.52;;
30048;SDS011;16879;50.852;15.602;2022-08-19T09:59:58;18.60;;;16.23;;
30048;SDS011;16879;50.852;15.602;2022-08-19T10:02:24;16.80;;;15.18;;
30048;SDS011;16879;50.852;15.602;2022-08-19T10:04:50;15.90;;;14.60;;
30048;SDS011;16879;50.852;15.602;2022-08-19T10:07:34;17.20;;;15.60;;
30048;SDS011;16879;50.852;15.602;2022-08-19T10:10:01;17.30;;;15.68;;
30048;SDS011;16879;50.852;15.602;2022-08-19T10:12:31;17.65;;;15.77;;
30048;SDS011;16879;50.852;15.602;2022-08-19T10:14:58;16.02;;;14.63;;
30048;SDS011;16879;50.852;15.602;2022-08-19T10:17:24;17.55;;;15.77;;
30048;SDS011;16879;50.852;15.602;2022-08-19T10:19:51;15.63;;;14.30;;
30048;SDS011;16879;50.852;15.602;2022-08-19T10:22:17;15.40;;;14.10;;
30048;SDS011;16879;50.852;15.602;2022-08-19T10:24:45;15.27;;;13.70;;
30048;SDS011;16879;50.852;15.602;2022-08-19T10:27:11;13.63;;;12.50;;
30048;SDS011;16879;50.852;15.602;2022-08-19T10:29:38;14.05;;;12.88;;
30048;SDS011;16879;50.852;15.602;2022-08-19T10:32:05;13.27;;;12.07;;
30048;SDS011;16879;50.852;15.602;2022-08-19T10:34:33;13.27;;;12.02;;
30048;SDS011;16879;50.852;15.602;2022-08-19T10:37:01;12.27;;;11.18;;
30048;SDS011;16879;50.852;15.602;2022-08-19T10:39:28;14.02;;;12.85;;
30048;SDS011;16879;50.852;15.602;2022-08-19T10:41:55;15.80;;;14.20;;
30048;SDS011;16879;50.852;15.602;2022-08-19T10:44:21;16.52;;;14.82;;
30048;SDS011;16879;50.852;15.602;2022-08-19T10:46:48;14.45;;;13.20;;
30048;SDS011;16879;50.852;15.602;2022-08-19T10:49:15;16.48;;;14.95;;
30048;SDS011;16879;50.852;15.602;2022-08-19T10:51:41;17.85;;;16.15;;
30048;SDS011;16879;50.852;15.602;2022-08-19T10:54:26;18.45;;;15.98;;
30048;SDS011;16879;50.852;15.602;2022-08-19T10:57:12;17.48;;;15.80;;
30048;SDS011;16879;50.852;15.602;2022-08-19T10:59:38;15.43;;;14.02;;
30048;SDS011;16879;50.852;15.602;2022-08-19T11:02:06;16.80;;;15.30;;
30048;SDS011;16879;50.852;15.602;2022-08-19T11:04:38;16.03;;;14.67;;
30048;SDS011;16879;50.852;15.602;2022-08-19T11:07:06;16.98;;;15.27;;
30048;SDS011;16879;50.852;15.602;2022-08-19T11:09:37;18.63;;;15.38;;
30048;SDS011;16879;50.852;15.602;2022-08-19T11:12:05;17.15;;;15.45;;
30048;SDS011;16879;50.852;15.602;2022-08-19T11:14:33;16.20;;;14.73;;
30048;SDS011;16879;50.852;15.602;2022-08-19T11:16:58;19.45;;;15.63;;
30048;SDS011;16879;50.852;15.602;2022-08-19T11:19:24;17.23;;;14.27;;
30048;SDS011;16879;50.852;15.602;2022-08-19T11:21:51;15.45;;;14.05;;
30048;SDS011;16879;50.852;15.602;2022-08-19T11:24:23;16.08;;;14.48;;
30048;SDS011;16879;50.852;15.602;2022-08-19T11:26:51;15.40;;;13.90;;
30048;SDS011;16879;50.852;15.602;2022-08-19T11:29:21;15.90;;;13.63;;
30048;SDS011;16879;50.852;15.602;2022-08-19T11:31:51;14.27;;;12.98;;
30048;SDS011;16879;50.852;15.602;2022-08-19T11:34:19;15.45;;;14.05;;
30048;SDS011;16879;50.852;15.602;2022-08-19T11:36:47;16.55;;;14.38;;
30048;SDS011;16879;50.852;15.602;2022-08-19T11:39:15;17.27;;;15.52;;
30048;SDS011;16879;50.852;15.602;2022-08-19T11:41:42;17.55;;;15.75;;
30048;SDS011;16879;50.852;15.602;2022-08-19T11:44:08;17.58;;;15.80;;
30048;SDS011;16879;50.852;15.602;2022-08-19T11:46:35;16.85;;;15.38;;
30048;SDS011;16879;50.852;15.602;2022-08-19T11:49:03;16.45;;;14.80;;
30048;SDS011;16879;50.852;15.602;2022-08-19T11:51:30;18.08;;;16.35;;
30048;SDS011;16879;50.852;15.602;2022-08-19T11:53:57;17.40;;;15.82;;
30048;SDS011;16879;50.852;15.602;2022-08-19T11:56:24;15.88;;;14.40;;
30048;SDS011;16879;50.852;15.602;2022-08-19T11:58:51;15.25;;;13.85;;
30048;SDS011;16879;50.852;15.602;2022-08-19T12:01:19;15.35;;;13.70;;
30048;SDS011;16879;50.852;15.602;2022-08-19T12:03:46;16.42;;;14.55;;
30048;SDS011;16879;50.852;15.602;2022-08-19T12:06:19;17.58;;;15.85;;
30048;SDS011;16879;50.852;15.602;2022-08-19T12:08:53;18.00;;;16.15;;
30048;SDS011;16879;50.852;15.602;2022-08-19T12:11:24;15.02;;;13.50;;
30048;SDS011;16879;50.852;15.602;2022-08-19T12:13:51;16.40;;;14.88;;
30048;SDS011;16879;50.852;15.602;2022-08-19T12:16:21;15.75;;;14.05;;
30048;SDS011;16879;50.852;15.602;2022-08-19T12:18:50;11.88;;;10.88;;
30048;SDS011;16879;50.852;15.602;2022-08-19T12:21:17;11.25;;;10.13;;
30048;SDS011;16879;50.852;15.602;2022-08-19T12:23:47;13.32;;;12.18;;
30048;SDS011;16879;50.852;15.602;2022-08-19T12:26:14;14.05;;;12.93;;
30048;SDS011;16879;50.852;15.602;2022-08-19T12:28:41;14.68;;;13.27;;
30048;SDS011;16879;50.852;15.602;2022-08-19T12:31:07;15.93;;;14.50;;
30048;SDS011;16879;50.852;15.602;2022-08-19T12:33:33;15.73;;;14.18;;
30048;SDS011;16879;50.852;15.602;2022-08-19T12:36:00;17.85;;;16.23;;
30048;SDS011;16879;50.852;15.602;2022-08-19T12:38:28;15.13;;;13.73;;
30048;SDS011;16879;50.852;15.602;2022-08-19T12:40:54;15.23;;;13.82;;
30048;SDS011;16879;50.852;15.602;2022-08-19T12:43:20;15.27;;;13.98;;
30048;SDS011;16879;50.852;15.602;2022-08-19T12:45:46;15.60;;;13.98;;
30048;SDS011;16879;50.852;15.602;2022-08-19T12:48:12;14.75;;;13.02;;
30048;SDS011;16879;50.852;15.602;2022-08-19T12:50:42;13.73;;;12.52;;
30048;SDS011;16879;50.852;15.602;2022-08-19T12:53:12;14.00;;;12.60;;
30048;SDS011;16879;50.852;15.602;2022-08-19T12:55:39;13.32;;;12.02;;
30048;SDS011;16879;50.852;15.602;2022-08-19T12:58:05;13.60;;;12.40;;
30048;SDS011;16879;50.852;15.602;2022-08-19T13:00:31;14.57;;;13.07;;
30048;SDS011;16879;50.852;15.602;2022-08-19T13:02:57;14.57;;;13.18;;
30048;SDS011;16879;50.852;15.602;2022-08-19T13:05:25;15.20;;;13.90;;
30048;SDS011;16879;50.852;15.602;2022-08-19T13:07:54;14.60;;;13.32;;
30048;SDS011;16879;50.852;15.602;2022-08-19T13:10:21;13.10;;;11.90;;
30048;SDS011;16879;50.852;15.602;2022-08-19T13:12:50;13.48;;;12.27;;
30048;SDS011;16879;50.852;15.602;2022-08-19T13:15:18;12.20;;;11.18;;
30048;SDS011;16879;50.852;15.602;2022-08-19T13:17:47;12.00;;;11.00;;
30048;SDS011;16879;50.852;15.602;2022-08-19T13:20:15;12.38;;;11.38;;
30048;SDS011;16879;50.852;15.602;2022-08-19T13:22:44;12.23;;;11.13;;
30048;SDS011;16879;50.852;15.602;2022-08-19T13:25:10;13.05;;;11.98;;
30048;SDS011;16879;50.852;15.602;2022-08-19T13:27:37;14.20;;;12.82;;
30048;SDS011;16879;50.852;15.602;2022-08-19T13:30:06;14.00;;;12.48;;
30048;SDS011;16879;50.852;15.602;2022-08-19T13:32:52;14.38;;;12.90;;
30048;SDS011;16879;50.852;15.602;2022-08-19T13:35:37;13.68;;;12.07;;
30048;SDS011;16879;50.852;15.602;2022-08-19T13:38:04;13.68;;;12.43;;
30048;SDS011;16879;50.852;15.602;2022-08-19T13:40:30;13.60;;;12.02;;
30048;SDS011;16879;50.852;15.602;2022-08-19T13:42:58;13.52;;;12.40;;
30048;SDS011;16879;50.852;15.602;2022-08-19T13:45:26;14.30;;;12.90;;
30048;SDS011;16879;50.852;15.602;2022-08-19T13:47:54;14.63;;;13.32;;
30048;SDS011;16879;50.852;15.602;2022-08-19T13:50:24;14.68;;;13.10;;
30048;SDS011;16879;50.852;15.602;2022-08-19T13:52:55;15.18;;;12.38;;
30048;SDS011;16879;50.852;15.602;2022-08-19T13:55:21;13.30;;;12.13;;
30048;SDS011;16879;50.852;15.602;2022-08-19T13:57:55;15.05;;;13.48;;
30048;SDS011;16879;50.852;15.602;2022-08-19T14:00:24;14.50;;;13.20;;
30048;SDS011;16879;50.852;15.602;2022-08-19T14:02:52;14.32;;;13.02;;
30048;SDS011;16879;50.852;15.602;2022-08-19T14:05:20;15.60;;;13.65;;
30048;SDS011;16879;50.852;15.602;2022-08-19T14:07:47;13.48;;;12.30;;
30048;SDS011;16879;50.852;15.602;2022-08-19T14:10:13;14.27;;;13.00;;
30048;SDS011;16879;50.852;15.602;2022-08-19T14:12:40;13.00;;;11.80;;
30048;SDS011;16879;50.852;15.602;2022-08-19T14:15:07;14.25;;;13.00;;
30048;SDS011;16879;50.852;15.602;2022-08-19T14:17:34;15.20;;;13.65;;
30048;SDS011;16879;50.852;15.602;2022-08-19T14:20:01;15.32;;;13.82;;
30048;SDS011;16879;50.852;15.602;2022-08-19T14:22:33;18.67;;;14.25;;
30048;SDS011;16879;50.852;15.602;2022-08-19T14:25:00;15.30;;;13.85;;
30048;SDS011;16879;50.852;15.602;2022-08-19T14:27:26;14.75;;;13.52;;
30048;SDS011;16879;50.852;15.602;2022-08-19T14:29:52;16.40;;;13.70;;
30048;SDS011;16879;50.852;15.602;2022-08-19T14:32:18;15.98;;;14.35;;
30048;SDS011;16879;50.852;15.602;2022-08-19T14:34:43;15.45;;;14.05;;
30048;SDS011;16879;50.852;15.602;2022-08-19T14:37:13;14.45;;;13.20;;
30048;SDS011;16879;50.852;15.602;2022-08-19T14:39:42;15.20;;;13.77;;
30048;SDS011;16879;50.852;15.602;2022-08-19T14:42:10;15.70;;;13.40;;
30048;SDS011;16879;50.852;15.602;2022-08-19T14:44:36;15.43;;;13.60;;
30048;SDS011;16879;50.852;15.602;2022-08-19T14:47:02;14.57;;;13.25;;